sensor_id;sensor_type;location;lat;lon;timestamp;temperature;humidity
76785;SHT30;66893;44.316;0.092;2023-04-01T00:00:20;20.37;45.14
76785;SHT30;66893;44.316;0.092;2023-04-01T00:02:45;20.37;45.19
76785;SHT30;66893;44.316;0.092;2023-04-01T00:05:12;20.39;45.17
76785;SHT30;66893;44.316;0.092;2023-04-01T00:07:38;20.33;45.19
76785;SHT30;66893;44.316;0.092;2023-04-01T00:10:06;20.33;45.25
76785;SHT30;66893;44.316;0.092;2023-04-01T00:12:32;20.26;45.23
76785;SHT30;66893;44.316;0.092;2023-04-01T00:14:58;20.29;45.23
76785;SHT30;66893;44.316;0.092;2023-04-01T00:17:23;20.30;45.24
76785;SHT30;66893;44.316;0.092;2023-04-01T00:19:49;20.26;45.26
76785;SHT30;66893;44.316;0.092;2023-04-01T00:22:14;20.23;45.26
76785;SHT30;66893;44.316;0.092;2023-04-01T00:24:40;20.24;45.24
76785;SHT30;66893;44.316;0.092;2023-04-01T00:27:05;20.22;45.23
76785;SHT30;66893;44.316;0.092;2023-04-01T00:29:31;20.19;45.18
76785;SHT30;66893;44.316;0.092;2023-04-01T00:31:57;20.17;45.20
76785;SHT30;66893;44.316;0.092;2023-04-01T00:34:23;20.17;45.20
76785;SHT30;66893;44.316;0.092;2023-04-01T00:36:49;20.13;45.18
76785;SHT30;66893;44.316;0.092;2023-04-01T00:39:15;20.12;45.18
76785;SHT30;66893;44.316;0.092;2023-04-01T00:41:41;20.12;45.17
76785;SHT30;66893;44.316;0.092;2023-04-01T00:44:31;20.09;45.15
76785;SHT30;66893;44.316;0.092;2023-04-01T00:46:58;20.09;45.15
76785;SHT30;66893;44.316;0.092;2023-04-01T00:49:27;20.08;45.13
76785;SHT30;66893;44.316;0.092;2023-04-01T00:51:55;20.06;45.10
76785;SHT30;66893;44.316;0.092;2023-04-01T00:54:24;20.02;45.12
76785;SHT30;66893;44.316;0.092;2023-04-01T00:57:00;20.00;45.14
76785;SHT30;66893;44.316;0.092;2023-04-01T00:59:30;20.00;45.17
76785;SHT30;66893;44.316;0.092;2023-04-01T01:01:57;20.00;45.22
76785;SHT30;66893;44.316;0.092;2023-04-01T01:04:28;19.99;45.24
76785;SHT30;66893;44.316;0.092;2023-04-01T01:10:10;19.95;45.29
76785;SHT30;66893;44.316;0.092;2023-04-01T01:15:49;19.90;45.35
76785;SHT30;66893;44.316;0.092;2023-04-01T01:18:40;19.88;45.38
76785;SHT30;66893;44.316;0.092;2023-04-01T01:36:53;19.79;45.59
76785;SHT30;66893;44.316;0.092;2023-04-01T01:39:20;19.78;45.63
76785;SHT30;66893;44.316;0.092;2023-04-01T01:41:52;19.77;45.66
76785;SHT30;66893;44.316;0.092;2023-04-01T01:44:20;19.75;45.64
76785;SHT30;66893;44.316;0.092;2023-04-01T01:46:47;19.77;45.69
76785;SHT30;66893;44.316;0.092;2023-04-01T01:49:14;19.74;45.72
76785;SHT30;66893;44.316;0.092;2023-04-01T01:51:41;19.71;45.76
76785;SHT30;66893;44.316;0.092;2023-04-01T01:54:12;19.72;45.72
76785;SHT30;66893;44.316;0.092;2023-04-01T01:56:38;19.69;45.77
76785;SHT30;66893;44.316;0.092;2023-04-01T01:59:08;19.71;45.82
76785;SHT30;66893;44.316;0.092;2023-04-01T02:01:39;19.67;45.82
76785;SHT30;66893;44.316;0.092;2023-04-01T02:04:07;19.67;45.87
76785;SHT30;66893;44.316;0.092;2023-04-01T02:06:37;19.65;45.88
76785;SHT30;66893;44.316;0.092;2023-04-01T02:09:07;19.64;45.94
76785;SHT30;66893;44.316;0.092;2023-04-01T02:14:13;19.58;46.10
76785;SHT30;66893;44.316;0.092;2023-04-01T02:16:44;19.60;46.18
76785;SHT30;66893;44.316;0.092;2023-04-01T02:19:13;19.55;46.23
76785;SHT30;66893;44.316;0.092;2023-04-01T02:21:42;19.55;46.26
76785;SHT30;66893;44.316;0.092;2023-04-01T02:24:13;19.57;46.39
76785;SHT30;66893;44.316;0.092;2023-04-01T02:26:40;19.53;46.49
76785;SHT30;66893;44.316;0.092;2023-04-01T02:29:08;19.53;46.54
76785;SHT30;66893;44.316;0.092;2023-04-01T02:31:36;19.51;46.62
76785;SHT30;66893;44.316;0.092;2023-04-01T02:34:03;19.50;46.61
76785;SHT30;66893;44.316;0.092;2023-04-01T02:36:29;19.49;46.72
76785;SHT30;66893;44.316;0.092;2023-04-01T02:38:55;19.49;46.74
76785;SHT30;66893;44.316;0.092;2023-04-01T02:41:22;19.46;46.82
76785;SHT30;66893;44.316;0.092;2023-04-01T02:43:47;19.41;46.88
76785;SHT30;66893;44.316;0.092;2023-04-01T02:46:12;19.43;46.93
76785;SHT30;66893;44.316;0.092;2023-04-01T02:48:38;19.46;47.04
76785;SHT30;66893;44.316;0.092;2023-04-01T02:51:03;19.41;47.06
76785;SHT30;66893;44.316;0.092;2023-04-01T02:53:29;19.41;47.10
76785;SHT30;66893;44.316;0.092;2023-04-01T02:55:55;19.40;47.12
76785;SHT30;66893;44.316;0.092;2023-04-01T02:58:21;19.40;47.16
76785;SHT30;66893;44.316;0.092;2023-04-01T03:00:48;19.40;47.25
76785;SHT30;66893;44.316;0.092;2023-04-01T03:03:13;19.37;47.21
76785;SHT30;66893;44.316;0.092;2023-04-01T03:05:39;19.38;47.23
76785;SHT30;66893;44.316;0.092;2023-04-01T03:08:04;19.37;47.27
76785;SHT30;66893;44.316;0.092;2023-04-01T03:10:30;19.33;47.31
76785;SHT30;66893;44.316;0.092;2023-04-01T03:12:56;19.31;47.39
76785;SHT30;66893;44.316;0.092;2023-04-01T03:15:21;19.31;47.36
76785;SHT30;66893;44.316;0.092;2023-04-01T03:17:46;19.28;47.33
76785;SHT30;66893;44.316;0.092;2023-04-01T03:20:12;19.28;47.34
76785;SHT30;66893;44.316;0.092;2023-04-01T03:22:38;19.27;47.41
76785;SHT30;66893;44.316;0.092;2023-04-01T03:25:05;19.26;47.48
76785;SHT30;66893;44.316;0.092;2023-04-01T03:27:33;19.24;47.46
76785;SHT30;66893;44.316;0.092;2023-04-01T03:29:59;19.23;47.45
76785;SHT30;66893;44.316;0.092;2023-04-01T03:32:24;19.23;47.47
76785;SHT30;66893;44.316;0.092;2023-04-01T03:34:50;19.23;47.50
76785;SHT30;66893;44.316;0.092;2023-04-01T03:37:15;19.22;47.61
76785;SHT30;66893;44.316;0.092;2023-04-01T03:39:41;19.17;47.65
76785;SHT30;66893;44.316;0.092;2023-04-01T03:42:06;19.16;47.70
76785;SHT30;66893;44.316;0.092;2023-04-01T03:44:35;19.17;47.77
76785;SHT30;66893;44.316;0.092;2023-04-01T03:47:01;19.16;47.73
76785;SHT30;66893;44.316;0.092;2023-04-01T03:49:27;19.14;47.76
76785;SHT30;66893;44.316;0.092;2023-04-01T03:51:52;19.13;47.78
76785;SHT30;66893;44.316;0.092;2023-04-01T03:54:17;19.12;47.71
76785;SHT30;66893;44.316;0.092;2023-04-01T03:56:45;19.10;47.71
76785;SHT30;66893;44.316;0.092;2023-04-01T03:59:11;19.09;47.74
76785;SHT30;66893;44.316;0.092;2023-04-01T04:01:36;19.09;47.80
76785;SHT30;66893;44.316;0.092;2023-04-01T04:04:02;19.09;47.77
76785;SHT30;66893;44.316;0.092;2023-04-01T04:06:28;19.06;47.77
76785;SHT30;66893;44.316;0.092;2023-04-01T04:08:53;19.06;47.84
76785;SHT30;66893;44.316;0.092;2023-04-01T04:11:20;19.06;47.84
76785;SHT30;66893;44.316;0.092;2023-04-01T04:13:46;19.07;47.82
76785;SHT30;66893;44.316;0.092;2023-04-01T04:16:13;19.03;47.82
76785;SHT30;66893;44.316;0.092;2023-04-01T04:18:39;18.99;47.83
76785;SHT30;66893;44.316;0.092;2023-04-01T04:21:04;18.99;47.89
76785;SHT30;66893;44.316;0.092;2023-04-01T04:23:33;19.00;47.87
76785;SHT30;66893;44.316;0.092;2023-04-01T04:26:01;18.96;47.91
76785;SHT30;66893;44.316;0.092;2023-04-01T04:28:27;18.94;47.93
76785;SHT30;66893;44.316;0.092;2023-04-01T04:30:54;18.94;47.97
76785;SHT30;66893;44.316;0.092;2023-04-01T04:33:20;18.95;47.90
76785;SHT30;66893;44.316;0.092;2023-04-01T04:35:46;18.94;47.97
76785;SHT30;66893;44.316;0.092;2023-04-01T04:38:11;18.92;48.05
76785;SHT30;66893;44.316;0.092;2023-04-01T04:40:37;18.94;48.04
76785;SHT30;66893;44.316;0.092;2023-04-01T04:43:03;18.92;48.07
76785;SHT30;66893;44.316;0.092;2023-04-01T04:45:29;18.86;48.10
76785;SHT30;66893;44.316;0.092;2023-04-01T04:47:55;18.88;48.14
76785;SHT30;66893;44.316;0.092;2023-04-01T04:50:20;18.88;48.18
76785;SHT30;66893;44.316;0.092;2023-04-01T04:52:46;18.89;48.21
76785;SHT30;66893;44.316;0.092;2023-04-01T04:55:11;18.84;48.24
76785;SHT30;66893;44.316;0.092;2023-04-01T04:57:37;18.79;48.42
76785;SHT30;66893;44.316;0.092;2023-04-01T05:00:03;18.72;48.56
76785;SHT30;66893;44.316;0.092;2023-04-01T05:02:29;18.67;48.64
76785;SHT30;66893;44.316;0.092;2023-04-01T05:04:55;18.69;48.70
76785;SHT30;66893;44.316;0.092;2023-04-01T05:07:20;18.68;48.68
76785;SHT30;66893;44.316;0.092;2023-04-01T05:09:46;18.68;48.73
76785;SHT30;66893;44.316;0.092;2023-04-01T05:12:12;18.67;48.74
76785;SHT30;66893;44.316;0.092;2023-04-01T05:14:38;18.65;48.76
76785;SHT30;66893;44.316;0.092;2023-04-01T05:17:04;18.68;48.80
76785;SHT30;66893;44.316;0.092;2023-04-01T05:19:29;18.71;48.85
76785;SHT30;66893;44.316;0.092;2023-04-01T05:21:55;18.67;48.88
76785;SHT30;66893;44.316;0.092;2023-04-01T05:24:20;18.67;48.90
76785;SHT30;66893;44.316;0.092;2023-04-01T05:26:46;18.67;48.92
76785;SHT30;66893;44.316;0.092;2023-04-01T05:29:11;18.67;48.95
76785;SHT30;66893;44.316;0.092;2023-04-01T05:31:36;18.64;48.95
76785;SHT30;66893;44.316;0.092;2023-04-01T05:34:02;18.64;48.98
76785;SHT30;66893;44.316;0.092;2023-04-01T05:36:27;18.65;49.01
76785;SHT30;66893;44.316;0.092;2023-04-01T05:38:56;18.65;49.00
76785;SHT30;66893;44.316;0.092;2023-04-01T05:41:21;18.64;49.04
76785;SHT30;66893;44.316;0.092;2023-04-01T05:43:47;18.62;49.11
76785;SHT30;66893;44.316;0.092;2023-04-01T05:46:12;18.61;49.07
76785;SHT30;66893;44.316;0.092;2023-04-01T05:48:38;18.62;49.06
76785;SHT30;66893;44.316;0.092;2023-04-01T05:51:04;18.61;49.12
76785;SHT30;66893;44.316;0.092;2023-04-01T05:53:30;18.64;49.03
76785;SHT30;66893;44.316;0.092;2023-04-01T05:55:55;18.61;49.13
76785;SHT30;66893;44.316;0.092;2023-04-01T05:58:20;18.61;49.12
76785;SHT30;66893;44.316;0.092;2023-04-01T06:00:46;18.59;49.11
76785;SHT30;66893;44.316;0.092;2023-04-01T06:03:11;18.61;49.14
76785;SHT30;66893;44.316;0.092;2023-04-01T06:05:42;18.59;49.13
76785;SHT30;66893;44.316;0.092;2023-04-01T06:08:12;18.61;49.11
76785;SHT30;66893;44.316;0.092;2023-04-01T06:10:51;18.59;49.09
76785;SHT30;66893;44.316;0.092;2023-04-01T06:29:58;18.57;49.22
76785;SHT30;66893;44.316;0.092;2023-04-01T06:32:45;18.58;49.32
76785;SHT30;66893;44.316;0.092;2023-04-01T06:40:52;18.58;49.48
76785;SHT30;66893;44.316;0.092;2023-04-01T06:46:35;18.62;49.45
76785;SHT30;66893;44.316;0.092;2023-04-01T06:49:07;18.65;49.52
76785;SHT30;66893;44.316;0.092;2023-04-01T06:54:32;18.69;49.53
76785;SHT30;66893;44.316;0.092;2023-04-01T06:57:03;18.71;49.62
76785;SHT30;66893;44.316;0.092;2023-04-01T06:59:32;18.69;49.65
76785;SHT30;66893;44.316;0.092;2023-04-01T07:02:04;18.71;49.65
76785;SHT30;66893;44.316;0.092;2023-04-01T07:04:37;18.75;49.65
76785;SHT30;66893;44.316;0.092;2023-04-01T07:07:14;18.72;49.75
76785;SHT30;66893;44.316;0.092;2023-04-01T07:09:46;18.75;49.74
76785;SHT30;66893;44.316;0.092;2023-04-01T07:12:47;18.76;49.73
76785;SHT30;66893;44.316;0.092;2023-04-01T07:15:42;18.81;49.74
76785;SHT30;66893;44.316;0.092;2023-04-01T07:18:18;18.81;49.75
76785;SHT30;66893;44.316;0.092;2023-04-01T07:20:44;18.86;49.82
76785;SHT30;66893;44.316;0.092;2023-04-01T07:23:32;18.88;49.74
76785;SHT30;66893;44.316;0.092;2023-04-01T07:26:24;18.91;49.73
76785;SHT30;66893;44.316;0.092;2023-04-01T07:28:53;18.85;49.87
76785;SHT30;66893;44.316;0.092;2023-04-01T07:37:45;18.73;50.46
76785;SHT30;66893;44.316;0.092;2023-04-01T07:40:03;18.79;50.44
76785;SHT30;66893;44.316;0.092;2023-04-01T07:45:13;18.84;50.50
76785;SHT30;66893;44.316;0.092;2023-04-01T07:48:26;18.85;50.38
76785;SHT30;66893;44.316;0.092;2023-04-01T07:54:03;18.91;50.35
76785;SHT30;66893;44.316;0.092;2023-04-01T07:59:44;18.98;50.41
76785;SHT30;66893;44.316;0.092;2023-04-01T08:02:39;18.98;50.36
76785;SHT30;66893;44.316;0.092;2023-04-01T08:05:14;19.00;50.39
76785;SHT30;66893;44.316;0.092;2023-04-01T08:10:30;19.06;50.36
76785;SHT30;66893;44.316;0.092;2023-04-01T08:13:20;19.06;50.27
76785;SHT30;66893;44.316;0.092;2023-04-01T08:18:31;19.10;50.36
76785;SHT30;66893;44.316;0.092;2023-04-01T08:21:11;19.14;50.39
76785;SHT30;66893;44.316;0.092;2023-04-01T08:23:43;19.16;50.32
76785;SHT30;66893;44.316;0.092;2023-04-01T08:31:22;19.23;50.08
76785;SHT30;66893;44.316;0.092;2023-04-01T08:33:53;19.24;50.08
76785;SHT30;66893;44.316;0.092;2023-04-01T08:36:24;19.24;49.94
76785;SHT30;66893;44.316;0.092;2023-04-01T08:39:06;19.27;49.94
76785;SHT30;66893;44.316;0.092;2023-04-01T08:48:08;19.35;49.95
76785;SHT30;66893;44.316;0.092;2023-04-01T08:55:37;19.28;49.28
76785;SHT30;66893;44.316;0.092;2023-04-01T08:58:26;19.13;49.06
76785;SHT30;66893;44.316;0.092;2023-04-01T09:03:49;19.06;49.17
76785;SHT30;66893;44.316;0.092;2023-04-01T09:06:33;19.05;49.10
76785;SHT30;66893;44.316;0.092;2023-04-01T09:09:24;19.06;49.03
76785;SHT30;66893;44.316;0.092;2023-04-01T09:21:02;19.26;48.69
76785;SHT30;66893;44.316;0.092;2023-04-01T09:23:53;19.28;48.60
76785;SHT30;66893;44.316;0.092;2023-04-01T09:40:21;19.51;47.86
76785;SHT30;66893;44.316;0.092;2023-04-01T10:03:28;19.02;49.49
76785;SHT30;66893;44.316;0.092;2023-04-01T10:06:03;19.02;49.59
76785;SHT30;66893;44.316;0.092;2023-04-01T10:11:09;19.00;49.69
76785;SHT30;66893;44.316;0.092;2023-04-01T10:19:13;19.13;49.70
76785;SHT30;66893;44.316;0.092;2023-04-01T10:22:17;19.13;49.97
76785;SHT30;66893;44.316;0.092;2023-04-01T10:25:14;19.16;49.97
76785;SHT30;66893;44.316;0.092;2023-04-01T10:27:47;19.13;50.08
76785;SHT30;66893;44.316;0.092;2023-04-01T10:33:15;19.10;50.15
76785;SHT30;66893;44.316;0.092;2023-04-01T10:55:44;19.44;49.75
76785;SHT30;66893;44.316;0.092;2023-04-01T11:01:07;19.51;49.36
76785;SHT30;66893;44.316;0.092;2023-04-01T11:09:42;19.61;48.77
76785;SHT30;66893;44.316;0.092;2023-04-01T11:18:06;19.82;48.37
76785;SHT30;66893;44.316;0.092;2023-04-01T11:20:46;19.86;48.39
76785;SHT30;66893;44.316;0.092;2023-04-01T11:26:08;19.96;48.24
76785;SHT30;66893;44.316;0.092;2023-04-01T11:37:23;20.12;48.16
76785;SHT30;66893;44.316;0.092;2023-04-01T11:42:55;20.10;48.29
76785;SHT30;66893;44.316;0.092;2023-04-01T11:45:50;20.12;48.34
76785;SHT30;66893;44.316;0.092;2023-04-01T12:12:32;20.65;48.17
76785;SHT30;66893;44.316;0.092;2023-04-01T12:18:24;20.67;48.16
76785;SHT30;66893;44.316;0.092;2023-04-01T12:20:53;20.74;48.20
76785;SHT30;66893;44.316;0.092;2023-04-01T12:28:22;20.87;48.09
76785;SHT30;66893;44.316;0.092;2023-04-01T12:50:39;20.91;48.00
76785;SHT30;66893;44.316;0.092;2023-04-01T12:55:52;20.78;48.03
76785;SHT30;66893;44.316;0.092;2023-04-01T13:01:19;20.64;48.12
76785;SHT30;66893;44.316;0.092;2023-04-01T13:07:13;20.47;48.01
76785;SHT30;66893;44.316;0.092;2023-04-01T13:17:22;20.47;47.98
76785;SHT30;66893;44.316;0.092;2023-04-01T13:25:16;20.61;47.66
76785;SHT30;66893;44.316;0.092;2023-04-01T13:27:49;20.60;47.63
76785;SHT30;66893;44.316;0.092;2023-04-01T13:30:24;20.57;47.54
76785;SHT30;66893;44.316;0.092;2023-04-01T13:36:23;20.48;47.50
76785;SHT30;66893;44.316;0.092;2023-04-01T13:44:46;20.40;47.44
76785;SHT30;66893;44.316;0.092;2023-04-01T13:56:04;20.55;47.43
76785;SHT30;66893;44.316;0.092;2023-04-01T14:05:01;21.03;47.21
76785;SHT30;66893;44.316;0.092;2023-04-01T14:10:12;21.42;46.93
76785;SHT30;66893;44.316;0.092;2023-04-01T14:12:44;21.62;46.77
76785;SHT30;66893;44.316;0.092;2023-04-01T14:20:55;21.70;46.47
76785;SHT30;66893;44.316;0.092;2023-04-01T14:26:12;21.55;46.53
76785;SHT30;66893;44.316;0.092;2023-04-01T14:28:44;21.49;46.59
76785;SHT30;66893;44.316;0.092;2023-04-01T14:31:30;21.47;46.63
76785;SHT30;66893;44.316;0.092;2023-04-01T14:36:57;24.12;44.57
76785;SHT30;66893;44.316;0.092;2023-04-01T14:39:56;26.18;41.79
76785;SHT30;66893;44.316;0.092;2023-04-01T14:50:44;25.73;41.43
76785;SHT30;66893;44.316;0.092;2023-04-01T14:55:53;24.77;42.10
76785;SHT30;66893;44.316;0.092;2023-04-01T14:58:21;24.79;42.44
76785;SHT30;66893;44.316;0.092;2023-04-01T15:00:54;24.86;42.14
76785;SHT30;66893;44.316;0.092;2023-04-01T15:03:29;24.64;42.34
76785;SHT30;66893;44.316;0.092;2023-04-01T15:06:11;25.93;41.57
76785;SHT30;66893;44.316;0.092;2023-04-01T15:14:49;30.67;35.96
76785;SHT30;66893;44.316;0.092;2023-04-01T15:26:19;30.79;35.52
76785;SHT30;66893;44.316;0.092;2023-04-01T15:31:39;32.75;32.80
76785;SHT30;66893;44.316;0.092;2023-04-01T15:37:10;34.34;30.76
76785;SHT30;66893;44.316;0.092;2023-04-01T15:45:31;36.03;28.77
76785;SHT30;66893;44.316;0.092;2023-04-01T15:51:16;36.48;28.08
76785;SHT30;66893;44.316;0.092;2023-04-01T15:54:14;36.75;27.92
76785;SHT30;66893;44.316;0.092;2023-04-01T16:05:06;35.78;28.22
76785;SHT30;66893;44.316;0.092;2023-04-01T16:08:32;35.96;28.07
76785;SHT30;66893;44.316;0.092;2023-04-01T16:13:22;36.48;27.60
76785;SHT30;66893;44.316;0.092;2023-04-01T16:19:10;35.92;27.54
76785;SHT30;66893;44.316;0.092;2023-04-01T16:21:52;34.21;28.28
76785;SHT30;66893;44.316;0.092;2023-04-01T16:27:29;31.53;30.05
76785;SHT30;66893;44.316;0.092;2023-04-01T16:30:32;30.43;30.77
76785;SHT30;66893;44.316;0.092;2023-04-01T16:38:42;30.93;31.10
76785;SHT30;66893;44.316;0.092;2023-04-01T16:41:17;31.73;30.59
76785;SHT30;66893;44.316;0.092;2023-04-01T17:02:26;32.94;30.14
76785;SHT30;66893;44.316;0.092;2023-04-01T17:05:11;32.90;30.03
76785;SHT30;66893;44.316;0.092;2023-04-01T17:07:40;32.84;29.87
76785;SHT30;66893;44.316;0.092;2023-04-01T17:24:55;32.59;29.86
76785;SHT30;66893;44.316;0.092;2023-04-01T17:27:32;32.46;30.17
76785;SHT30;66893;44.316;0.092;2023-04-01T17:30:22;32.40;30.14
76785;SHT30;66893;44.316;0.092;2023-04-01T17:52:44;29.04;31.30
76785;SHT30;66893;44.316;0.092;2023-04-01T18:12:12;26.10;33.10
76785;SHT30;66893;44.316;0.092;2023-04-01T18:25:40;24.72;34.05
76785;SHT30;66893;44.316;0.092;2023-04-01T18:30:59;24.29;34.28
76785;SHT30;66893;44.316;0.092;2023-04-01T18:33:52;24.09;34.41
76785;SHT30;66893;44.316;0.092;2023-04-01T18:39:40;23.69;34.71
76785;SHT30;66893;44.316;0.092;2023-04-01T18:45:32;23.32;35.03
76785;SHT30;66893;44.316;0.092;2023-04-01T18:53:44;22.91;35.50
76785;SHT30;66893;44.316;0.092;2023-04-01T18:56:37;22.75;35.62
76785;SHT30;66893;44.316;0.092;2023-04-01T18:59:24;22.64;35.78
76785;SHT30;66893;44.316;0.092;2023-04-01T19:04:39;22.43;35.97
76785;SHT30;66893;44.316;0.092;2023-04-01T19:09:51;22.12;36.47
76785;SHT30;66893;44.316;0.092;2023-04-01T19:12:47;21.98;36.70
76785;SHT30;66893;44.316;0.092;2023-04-01T19:20:47;21.67;37.14
76785;SHT30;66893;44.316;0.092;2023-04-01T19:26:23;21.50;37.39
76785;SHT30;66893;44.316;0.092;2023-04-01T19:29:18;21.42;37.52
76785;SHT30;66893;44.316;0.092;2023-04-01T19:45:43;21.03;38.42
76785;SHT30;66893;44.316;0.092;2023-04-01T19:51:24;20.92;38.60
76785;SHT30;66893;44.316;0.092;2023-04-01T19:54:24;20.81;38.58
76785;SHT30;66893;44.316;0.092;2023-04-01T20:06:17;20.63;39.12
76785;SHT30;66893;44.316;0.092;2023-04-01T20:11:50;20.53;39.24
76785;SHT30;66893;44.316;0.092;2023-04-01T20:25:38;20.37;39.62
76785;SHT30;66893;44.316;0.092;2023-04-01T20:28:13;20.36;39.62
76785;SHT30;66893;44.316;0.092;2023-04-01T20:36:36;20.26;39.78
76785;SHT30;66893;44.316;0.092;2023-04-01T20:47:53;20.10;39.97
76785;SHT30;66893;44.316;0.092;2023-04-01T20:50:38;20.05;40.04
76785;SHT30;66893;44.316;0.092;2023-04-01T20:53:04;20.04;40.15
76785;SHT30;66893;44.316;0.092;2023-04-01T21:04:02;19.92;40.28
76785;SHT30;66893;44.316;0.092;2023-04-01T21:18:46;19.77;40.56
76785;SHT30;66893;44.316;0.092;2023-04-01T21:27:02;19.68;40.67
76785;SHT30;66893;44.316;0.092;2023-04-01T21:32:17;19.64;40.82
76785;SHT30;66893;44.316;0.092;2023-04-01T21:43:20;19.50;41.02
76785;SHT30;66893;44.316;0.092;2023-04-01T21:56:55;19.33;41.28
76785;SHT30;66893;44.316;0.092;2023-04-01T22:05:31;19.23;41.49
76785;SHT30;66893;44.316;0.092;2023-04-01T22:14:01;19.16;41.62
76785;SHT30;66893;44.316;0.092;2023-04-01T22:16:54;19.13;41.76
76785;SHT30;66893;44.316;0.092;2023-04-01T22:22:22;19.13;41.83
76785;SHT30;66893;44.316;0.092;2023-04-01T22:25:07;19.10;41.90
76785;SHT30;66893;44.316;0.092;2023-04-01T22:27:49;19.10;41.95
76785;SHT30;66893;44.316;0.092;2023-04-01T22:30:23;19.07;42.00
76785;SHT30;66893;44.316;0.092;2023-04-01T22:33:06;19.03;42.04
76785;SHT30;66893;44.316;0.092;2023-04-01T22:35:40;19.03;42.08
76785;SHT30;66893;44.316;0.092;2023-04-01T22:43:44;18.96;42.15
76785;SHT30;66893;44.316;0.092;2023-04-01T22:49:00;18.94;42.28
76785;SHT30;66893;44.316;0.092;2023-04-01T22:51:42;18.86;42.37
76785;SHT30;66893;44.316;0.092;2023-04-01T23:02:30;18.79;42.51
76785;SHT30;66893;44.316;0.092;2023-04-01T23:04:59;18.76;42.57
76785;SHT30;66893;44.316;0.092;2023-04-01T23:09:56;18.73;42.66
76785;SHT30;66893;44.316;0.092;2023-04-01T23:12:25;18.71;42.66
76785;SHT30;66893;44.316;0.092;2023-04-01T23:15:00;18.68;42.70
76785;SHT30;66893;44.316;0.092;2023-04-01T23:28:43;18.58;42.84
76785;SHT30;66893;44.316;0.092;2023-04-01T23:31:36;18.55;42.89
76785;SHT30;66893;44.316;0.092;2023-04-01T23:34:33;18.52;42.95
76785;SHT30;66893;44.316;0.092;2023-04-01T23:37:13;18.51;43.00
76785;SHT30;66893;44.316;0.092;2023-04-01T23:39:46;18.51;43.09
76785;SHT30;66893;44.316;0.092;2023-04-01T23:42:29;18.45;43.06
76785;SHT30;66893;44.316;0.092;2023-04-01T23:44:58;18.47;43.14
76785;SHT30;66893;44.316;0.092;2023-04-01T23:47:29;18.43;43.19
76785;SHT30;66893;44.316;0.092;2023-04-01T23:49:58;18.43;43.23
76785;SHT30;66893;44.316;0.092;2023-04-01T23:52:30;18.41;43.29
76785;SHT30;66893;44.316;0.092;2023-04-01T23:55:14;18.41;43.35
76785;SHT30;66893;44.316;0.092;2023-04-01T23:57:39;18.40;43.33
